Aviation Digital Data Service (ADDS)

Output produced by TAFs form (0722 UTC 31 July 2014)
found at http://aviationweather.gov/adds/tafs/
 
KTCC 310534Z 3106/0106 06015KT P6SM SCT040 
     FM310800 06010KT P6SM BKN040 
     FM311000 03005KT P6SM SCT015 OVC040 
     FM311500 09005KT P6SM BKN060 
     FM010000 09010KT P6SM OVC040